sensor_id;sensor_type;location;lat;lon;timestamp;pressure;altitude;pressure_sealevel;temperature;humidity
60611;BME280;46439;51.164;13.572;2023-03-04T00:01:02;100547.09;;;2.18;75.73
60611;BME280;46439;51.164;13.572;2023-03-04T00:03:30;100544.20;;;2.22;75.59
60611;BME280;46439;51.164;13.572;2023-03-04T00:05:59;100541.71;;;2.24;75.82
60611;BME280;46439;51.164;13.572;2023-03-04T00:08:28;100541.64;;;2.25;75.85
60611;BME280;46439;51.164;13.572;2023-03-04T00:10:57;100540.91;;;2.23;75.71
60611;BME280;46439;51.164;13.572;2023-03-04T00:13:26;100539.17;;;2.20;75.90
60611;BME280;46439;51.164;13.572;2023-03-04T00:15:55;100540.62;;;2.17;75.67
60611;BME280;46439;51.164;13.572;2023-03-04T00:18:23;100538.07;;;2.15;75.50
60611;BME280;46439;51.164;13.572;2023-03-04T00:20:52;100536.30;;;2.15;75.71
60611;BME280;46439;51.164;13.572;2023-03-04T00:23:21;100538.82;;;2.15;75.73
60611;BME280;46439;51.164;13.572;2023-03-04T00:25:50;100538.61;;;2.16;75.80
60611;BME280;46439;51.164;13.572;2023-03-04T00:28:19;100540.93;;;2.18;75.71
60611;BME280;46439;51.164;13.572;2023-03-04T00:30:47;100536.94;;;2.19;75.57
60611;BME280;46439;51.164;13.572;2023-03-04T00:33:17;100533.14;;;2.17;75.63
60611;BME280;46439;51.164;13.572;2023-03-04T00:35:45;100530.63;;;2.15;75.52
60611;BME280;46439;51.164;13.572;2023-03-04T00:38:14;100527.05;;;2.18;75.73
60611;BME280;46439;51.164;13.572;2023-03-04T00:40:43;100523.91;;;2.18;75.99
60611;BME280;46439;51.164;13.572;2023-03-04T00:43:12;100516.67;;;2.17;75.45
60611;BME280;46439;51.164;13.572;2023-03-04T00:45:41;100520.32;;;2.15;75.73
60611;BME280;46439;51.164;13.572;2023-03-04T00:48:09;100517.58;;;2.14;75.80
60611;BME280;46439;51.164;13.572;2023-03-04T00:50:39;100517.09;;;2.13;75.47
60611;BME280;46439;51.164;13.572;2023-03-04T00:53:08;100512.14;;;2.13;75.58
60611;BME280;46439;51.164;13.572;2023-03-04T00:55:37;100511.38;;;2.14;75.68
60611;BME280;46439;51.164;13.572;2023-03-04T00:58:06;100508.40;;;2.13;75.66
60611;BME280;46439;51.164;13.572;2023-03-04T01:00:34;100509.40;;;2.14;75.90
60611;BME280;46439;51.164;13.572;2023-03-04T01:03:03;100512.05;;;2.12;75.60
60611;BME280;46439;51.164;13.572;2023-03-04T01:05:32;100512.40;;;2.09;75.50
60611;BME280;46439;51.164;13.572;2023-03-04T01:08:03;100503.27;;;2.10;75.69
60611;BME280;46439;51.164;13.572;2023-03-04T01:10:32;100502.94;;;2.10;75.52
60611;BME280;46439;51.164;13.572;2023-03-04T01:13:03;100495.27;;;2.10;75.79
60611;BME280;46439;51.164;13.572;2023-03-04T01:15:33;100489.58;;;2.08;75.81
60611;BME280;46439;51.164;13.572;2023-03-04T01:18:03;100485.55;;;2.07;75.63
60611;BME280;46439;51.164;13.572;2023-03-04T01:20:46;100482.86;;;2.07;75.55
60611;BME280;46439;51.164;13.572;2023-03-04T01:23:15;100478.63;;;2.07;75.67
60611;BME280;46439;51.164;13.572;2023-03-04T01:25:44;100471.20;;;2.07;75.63
60611;BME280;46439;51.164;13.572;2023-03-04T01:28:17;100467.27;;;2.05;75.42
60611;BME280;46439;51.164;13.572;2023-03-04T01:30:53;100466.05;;;2.04;75.53
60611;BME280;46439;51.164;13.572;2023-03-04T01:33:24;100464.38;;;2.06;75.26
60611;BME280;46439;51.164;13.572;2023-03-04T01:35:54;100464.54;;;2.03;75.47
60611;BME280;46439;51.164;13.572;2023-03-04T01:38:32;100459.08;;;2.00;75.57
60611;BME280;46439;51.164;13.572;2023-03-04T01:41:01;100454.42;;;1.98;75.82
60611;BME280;46439;51.164;13.572;2023-03-04T01:43:31;100455.67;;;1.98;75.66
60611;BME280;46439;51.164;13.572;2023-03-04T01:46:03;100449.45;;;1.98;75.64
60611;BME280;46439;51.164;13.572;2023-03-04T01:48:39;100446.58;;;1.99;75.48
60611;BME280;46439;51.164;13.572;2023-03-04T01:51:16;100445.02;;;2.01;75.79
60611;BME280;46439;51.164;13.572;2023-03-04T01:53:48;100439.73;;;2.03;75.94
60611;BME280;46439;51.164;13.572;2023-03-04T01:56:24;100438.39;;;2.04;75.73
60611;BME280;46439;51.164;13.572;2023-03-04T01:59:12;100438.57;;;2.06;75.93
60611;BME280;46439;51.164;13.572;2023-03-04T02:01:45;100435.04;;;2.06;75.98
60611;BME280;46439;51.164;13.572;2023-03-04T02:04:22;100432.43;;;2.05;75.93
60611;BME280;46439;51.164;13.572;2023-03-04T02:07:03;100425.90;;;2.05;75.82
60611;BME280;46439;51.164;13.572;2023-03-04T02:09:33;100425.59;;;2.04;75.86
60611;BME280;46439;51.164;13.572;2023-03-04T02:12:06;100423.96;;;2.04;75.84
60611;BME280;46439;51.164;13.572;2023-03-04T02:14:37;100419.59;;;2.04;75.84
60611;BME280;46439;51.164;13.572;2023-03-04T02:17:12;100420.79;;;2.02;75.83
60611;BME280;46439;51.164;13.572;2023-03-04T02:29:04;100416.06;;;2.01;75.68
60611;BME280;46439;51.164;13.572;2023-03-04T02:31:34;100414.12;;;1.99;76.09
60611;BME280;46439;51.164;13.572;2023-03-04T02:34:06;100411.70;;;1.98;75.62
60611;BME280;46439;51.164;13.572;2023-03-04T02:36:36;100405.02;;;1.99;76.11
60611;BME280;46439;51.164;13.572;2023-03-04T02:39:10;100403.44;;;1.99;75.70
60611;BME280;46439;51.164;13.572;2023-03-04T02:41:39;100396.69;;;1.99;76.10
60611;BME280;46439;51.164;13.572;2023-03-04T02:44:16;100394.73;;;1.99;75.93
60611;BME280;46439;51.164;13.572;2023-03-04T02:46:46;100389.10;;;1.98;75.91
60611;BME280;46439;51.164;13.572;2023-03-04T02:49:15;100387.01;;;1.98;75.81
60611;BME280;46439;51.164;13.572;2023-03-04T02:51:44;100385.20;;;1.96;75.97
60611;BME280;46439;51.164;13.572;2023-03-04T02:54:20;100378.59;;;1.97;75.81
60611;BME280;46439;51.164;13.572;2023-03-04T02:56:50;100376.69;;;1.98;75.75
60611;BME280;46439;51.164;13.572;2023-03-04T02:59:20;100381.35;;;2.00;76.09
60611;BME280;46439;51.164;13.572;2023-03-04T03:01:49;100375.63;;;1.98;76.23
60611;BME280;46439;51.164;13.572;2023-03-04T03:04:18;100372.09;;;2.00;76.25
60611;BME280;46439;51.164;13.572;2023-03-04T03:06:48;100372.45;;;2.00;76.18
60611;BME280;46439;51.164;13.572;2023-03-04T03:09:16;100370.62;;;2.01;76.14
60611;BME280;46439;51.164;13.572;2023-03-04T03:11:45;100367.41;;;2.01;76.26
60611;BME280;46439;51.164;13.572;2023-03-04T03:14:14;100367.69;;;2.05;76.25
60611;BME280;46439;51.164;13.572;2023-03-04T03:16:42;100366.89;;;2.03;75.97
60611;BME280;46439;51.164;13.572;2023-03-04T03:19:11;100364.88;;;2.02;76.06
60611;BME280;46439;51.164;13.572;2023-03-04T03:21:39;100367.32;;;2.00;76.11
60611;BME280;46439;51.164;13.572;2023-03-04T03:24:08;100364.45;;;1.98;76.11
60611;BME280;46439;51.164;13.572;2023-03-04T03:26:36;100367.07;;;1.96;76.20
60611;BME280;46439;51.164;13.572;2023-03-04T03:29:07;100364.56;;;1.94;75.78
60611;BME280;46439;51.164;13.572;2023-03-04T03:31:35;100361.36;;;1.94;75.91
60611;BME280;46439;51.164;13.572;2023-03-04T03:34:03;100356.39;;;1.97;76.07
60611;BME280;46439;51.164;13.572;2023-03-04T03:36:32;100359.08;;;1.99;76.13
60611;BME280;46439;51.164;13.572;2023-03-04T03:39:00;100361.15;;;1.97;76.03
60611;BME280;46439;51.164;13.572;2023-03-04T03:41:29;100355.72;;;1.96;76.18
60611;BME280;46439;51.164;13.572;2023-03-04T03:43:58;100354.85;;;1.96;76.20
60611;BME280;46439;51.164;13.572;2023-03-04T03:46:26;100356.40;;;1.96;75.97
60611;BME280;46439;51.164;13.572;2023-03-04T03:48:54;100364.23;;;1.96;75.93
60611;BME280;46439;51.164;13.572;2023-03-04T03:51:23;100363.77;;;1.98;75.99
60611;BME280;46439;51.164;13.572;2023-03-04T03:53:51;100363.05;;;2.00;76.40
60611;BME280;46439;51.164;13.572;2023-03-04T03:56:20;100364.19;;;2.01;76.06
60611;BME280;46439;51.164;13.572;2023-03-04T03:58:48;100361.52;;;2.02;76.14
60611;BME280;46439;51.164;13.572;2023-03-04T04:01:17;100362.27;;;2.01;76.00
60611;BME280;46439;51.164;13.572;2023-03-04T04:03:45;100362.58;;;2.02;76.19
60611;BME280;46439;51.164;13.572;2023-03-04T04:06:13;100361.31;;;2.02;76.04
60611;BME280;46439;51.164;13.572;2023-03-04T04:08:42;100360.38;;;2.00;76.40
60611;BME280;46439;51.164;13.572;2023-03-04T04:11:11;100368.47;;;2.01;76.35
60611;BME280;46439;51.164;13.572;2023-03-04T04:13:40;100365.56;;;2.00;76.08
60611;BME280;46439;51.164;13.572;2023-03-04T04:16:10;100366.19;;;2.01;76.44
60611;BME280;46439;51.164;13.572;2023-03-04T04:18:38;100361.36;;;2.01;76.16
60611;BME280;46439;51.164;13.572;2023-03-04T04:21:08;100366.13;;;2.04;76.39
60611;BME280;46439;51.164;13.572;2023-03-04T04:23:37;100369.28;;;2.04;76.21
60611;BME280;46439;51.164;13.572;2023-03-04T04:26:05;100365.81;;;2.06;76.28
60611;BME280;46439;51.164;13.572;2023-03-04T04:28:34;100365.47;;;2.06;76.63
60611;BME280;46439;51.164;13.572;2023-03-04T04:31:02;100363.88;;;2.06;76.38
60611;BME280;46439;51.164;13.572;2023-03-04T04:33:33;100365.98;;;2.06;76.50
60611;BME280;46439;51.164;13.572;2023-03-04T04:36:02;100365.95;;;2.07;76.34
60611;BME280;46439;51.164;13.572;2023-03-04T04:38:32;100365.66;;;2.08;76.24
60611;BME280;46439;51.164;13.572;2023-03-04T04:41:01;100365.61;;;2.09;76.59
60611;BME280;46439;51.164;13.572;2023-03-04T04:43:29;100364.27;;;2.10;76.06
60611;BME280;46439;51.164;13.572;2023-03-04T04:45:59;100361.86;;;2.14;76.45
60611;BME280;46439;51.164;13.572;2023-03-04T04:48:28;100360.29;;;2.18;76.61
60611;BME280;46439;51.164;13.572;2023-03-04T04:50:56;100356.61;;;2.18;76.73
60611;BME280;46439;51.164;13.572;2023-03-04T04:53:25;100353.73;;;2.18;76.73
60611;BME280;46439;51.164;13.572;2023-03-04T04:55:53;100351.90;;;2.21;76.81
60611;BME280;46439;51.164;13.572;2023-03-04T04:58:22;100350.05;;;2.22;76.67
60611;BME280;46439;51.164;13.572;2023-03-04T05:00:50;100348.93;;;2.23;76.77
60611;BME280;46439;51.164;13.572;2023-03-04T05:03:19;100348.86;;;2.24;76.86
60611;BME280;46439;51.164;13.572;2023-03-04T05:05:47;100346.47;;;2.25;76.53
60611;BME280;46439;51.164;13.572;2023-03-04T05:08:15;100341.84;;;2.25;76.65
60611;BME280;46439;51.164;13.572;2023-03-04T05:10:44;100338.84;;;2.27;77.37
60611;BME280;46439;51.164;13.572;2023-03-04T05:13:12;100337.58;;;2.30;76.69
60611;BME280;46439;51.164;13.572;2023-03-04T05:15:41;100334.70;;;2.30;76.79
60611;BME280;46439;51.164;13.572;2023-03-04T05:18:09;100336.96;;;2.28;76.95
60611;BME280;46439;51.164;13.572;2023-03-04T05:20:38;100332.55;;;2.28;76.84
60611;BME280;46439;51.164;13.572;2023-03-04T05:23:06;100335.04;;;2.31;76.63
60611;BME280;46439;51.164;13.572;2023-03-04T05:25:35;100333.88;;;2.34;76.89
60611;BME280;46439;51.164;13.572;2023-03-04T05:28:03;100333.23;;;2.36;76.83
60611;BME280;46439;51.164;13.572;2023-03-04T05:30:33;100335.25;;;2.37;76.93
60611;BME280;46439;51.164;13.572;2023-03-04T05:33:01;100332.89;;;2.38;76.88
60611;BME280;46439;51.164;13.572;2023-03-04T05:35:30;100331.36;;;2.39;76.83
60611;BME280;46439;51.164;13.572;2023-03-04T05:37:58;100324.45;;;2.41;77.05
60611;BME280;46439;51.164;13.572;2023-03-04T05:40:28;100326.40;;;2.44;76.66
60611;BME280;46439;51.164;13.572;2023-03-04T05:42:56;100324.41;;;2.44;76.88
60611;BME280;46439;51.164;13.572;2023-03-04T05:45:25;100323.68;;;2.44;76.94
60611;BME280;46439;51.164;13.572;2023-03-04T05:47:54;100322.16;;;2.45;76.91
60611;BME280;46439;51.164;13.572;2023-03-04T05:50:24;100321.56;;;2.49;76.95
60611;BME280;46439;51.164;13.572;2023-03-04T05:52:52;100316.48;;;2.50;77.00
60611;BME280;46439;51.164;13.572;2023-03-04T05:55:21;100316.19;;;2.52;76.76
60611;BME280;46439;51.164;13.572;2023-03-04T05:57:49;100314.36;;;2.55;76.99
60611;BME280;46439;51.164;13.572;2023-03-04T06:00:19;100314.77;;;2.56;76.99
60611;BME280;46439;51.164;13.572;2023-03-04T06:02:47;100311.17;;;2.57;77.00
60611;BME280;46439;51.164;13.572;2023-03-04T06:05:17;100310.97;;;2.60;76.74
60611;BME280;46439;51.164;13.572;2023-03-04T06:07:46;100305.36;;;2.63;77.29
60611;BME280;46439;51.164;13.572;2023-03-04T06:10:17;100307.20;;;2.65;77.45
60611;BME280;46439;51.164;13.572;2023-03-04T06:12:45;100305.70;;;2.66;77.18
60611;BME280;46439;51.164;13.572;2023-03-04T06:15:14;100302.98;;;2.66;77.03
60611;BME280;46439;51.164;13.572;2023-03-04T06:17:42;100300.47;;;2.66;77.19
60611;BME280;46439;51.164;13.572;2023-03-04T06:20:13;100300.06;;;2.67;77.08
60611;BME280;46439;51.164;13.572;2023-03-04T06:22:41;100305.27;;;2.67;77.29
60611;BME280;46439;51.164;13.572;2023-03-04T06:25:11;100305.96;;;2.67;77.16
60611;BME280;46439;51.164;13.572;2023-03-04T06:27:39;100306.48;;;2.67;77.12
60611;BME280;46439;51.164;13.572;2023-03-04T06:30:11;100305.47;;;2.69;77.21
60611;BME280;46439;51.164;13.572;2023-03-04T06:32:39;100303.02;;;2.71;76.87
60611;BME280;46439;51.164;13.572;2023-03-04T06:35:12;100304.84;;;2.70;77.35
60611;BME280;46439;51.164;13.572;2023-03-04T06:37:41;100305.15;;;2.71;76.95
60611;BME280;46439;51.164;13.572;2023-03-04T06:40:12;100305.98;;;2.71;77.05
60611;BME280;46439;51.164;13.572;2023-03-04T06:42:41;100303.06;;;2.70;77.45
60611;BME280;46439;51.164;13.572;2023-03-04T06:45:11;100305.78;;;2.69;77.20
60611;BME280;46439;51.164;13.572;2023-03-04T06:47:40;100306.36;;;2.71;77.24
60611;BME280;46439;51.164;13.572;2023-03-04T06:50:11;100310.64;;;2.71;77.28
60611;BME280;46439;51.164;13.572;2023-03-04T06:52:40;100304.95;;;2.73;77.17
60611;BME280;46439;51.164;13.572;2023-03-04T06:55:10;100309.60;;;2.75;76.97
60611;BME280;46439;51.164;13.572;2023-03-04T06:57:40;100310.70;;;2.75;77.08
60611;BME280;46439;51.164;13.572;2023-03-04T07:00:11;100312.11;;;2.77;77.28
60611;BME280;46439;51.164;13.572;2023-03-04T07:02:39;100309.75;;;2.78;77.02
60611;BME280;46439;51.164;13.572;2023-03-04T07:05:10;100305.48;;;2.78;77.18
60611;BME280;46439;51.164;13.572;2023-03-04T07:07:38;100309.26;;;2.77;77.23
60611;BME280;46439;51.164;13.572;2023-03-04T07:10:09;100311.59;;;2.79;77.36
60611;BME280;46439;51.164;13.572;2023-03-04T07:12:38;100302.28;;;2.82;77.27
60611;BME280;46439;51.164;13.572;2023-03-04T07:15:08;100306.20;;;2.84;77.52
60611;BME280;46439;51.164;13.572;2023-03-04T07:17:37;100306.78;;;2.88;77.38
60611;BME280;46439;51.164;13.572;2023-03-04T07:20:07;100308.92;;;2.91;77.58
60611;BME280;46439;51.164;13.572;2023-03-04T07:22:35;100303.99;;;2.90;77.19
60611;BME280;46439;51.164;13.572;2023-03-04T07:25:05;100301.58;;;2.89;77.44
60611;BME280;46439;51.164;13.572;2023-03-04T07:27:33;100303.77;;;2.86;77.22
60611;BME280;46439;51.164;13.572;2023-03-04T07:30:03;100302.02;;;2.86;77.32
60611;BME280;46439;51.164;13.572;2023-03-04T07:32:31;100301.60;;;2.86;76.98
60611;BME280;46439;51.164;13.572;2023-03-04T07:35:01;100303.84;;;2.87;77.46
60611;BME280;46439;51.164;13.572;2023-03-04T07:37:31;100306.64;;;2.90;77.31
60611;BME280;46439;51.164;13.572;2023-03-04T07:39:59;100307.06;;;2.94;77.28
60611;BME280;46439;51.164;13.572;2023-03-04T07:42:27;100305.95;;;2.97;77.60
60611;BME280;46439;51.164;13.572;2023-03-04T07:44:56;100303.72;;;2.96;77.48
60611;BME280;46439;51.164;13.572;2023-03-04T07:47:25;100302.70;;;2.98;77.44
60611;BME280;46439;51.164;13.572;2023-03-04T07:49:53;100304.10;;;2.98;77.34
60611;BME280;46439;51.164;13.572;2023-03-04T07:52:23;100303.18;;;3.00;77.68
60611;BME280;46439;51.164;13.572;2023-03-04T07:54:51;100298.01;;;3.03;78.00
60611;BME280;46439;51.164;13.572;2023-03-04T07:57:20;100298.60;;;3.06;77.69
60611;BME280;46439;51.164;13.572;2023-03-04T07:59:48;100299.08;;;3.12;77.96
60611;BME280;46439;51.164;13.572;2023-03-04T08:02:16;100291.27;;;3.14;77.73
60611;BME280;46439;51.164;13.572;2023-03-04T08:04:45;100290.36;;;3.16;77.60
60611;BME280;46439;51.164;13.572;2023-03-04T08:07:13;100286.05;;;3.19;77.66
60611;BME280;46439;51.164;13.572;2023-03-04T08:09:42;100290.67;;;3.25;77.59
60611;BME280;46439;51.164;13.572;2023-03-04T08:12:10;100287.80;;;3.33;77.89
60611;BME280;46439;51.164;13.572;2023-03-04T08:14:39;100289.20;;;3.35;77.90
60611;BME280;46439;51.164;13.572;2023-03-04T08:17:07;100291.02;;;3.35;77.90
60611;BME280;46439;51.164;13.572;2023-03-04T08:19:37;100292.35;;;3.34;77.66
60611;BME280;46439;51.164;13.572;2023-03-04T08:22:05;100287.70;;;3.34;77.82
60611;BME280;46439;51.164;13.572;2023-03-04T08:24:34;100291.21;;;3.37;77.89
60611;BME280;46439;51.164;13.572;2023-03-04T08:27:03;100288.40;;;3.39;78.05
60611;BME280;46439;51.164;13.572;2023-03-04T08:29:32;100292.13;;;3.41;77.93
60611;BME280;46439;51.164;13.572;2023-03-04T08:32:00;100290.35;;;3.41;77.92
60611;BME280;46439;51.164;13.572;2023-03-04T08:34:29;100285.45;;;3.39;77.93
60611;BME280;46439;51.164;13.572;2023-03-04T08:36:58;100285.23;;;3.42;77.70
60611;BME280;46439;51.164;13.572;2023-03-04T08:39:26;100288.02;;;3.45;77.75
60611;BME280;46439;51.164;13.572;2023-03-04T08:41:55;100287.02;;;3.47;78.03
60611;BME280;46439;51.164;13.572;2023-03-04T08:44:24;100288.70;;;3.48;77.85
60611;BME280;46439;51.164;13.572;2023-03-04T08:46:52;100288.30;;;3.51;78.01
60611;BME280;46439;51.164;13.572;2023-03-04T08:49:21;100291.14;;;3.53;78.14
60611;BME280;46439;51.164;13.572;2023-03-04T08:51:49;100288.45;;;3.51;77.98
60611;BME280;46439;51.164;13.572;2023-03-04T08:54:18;100286.89;;;3.51;78.14
60611;BME280;46439;51.164;13.572;2023-03-04T08:56:46;100286.77;;;3.50;78.00
60611;BME280;46439;51.164;13.572;2023-03-04T08:59:14;100293.77;;;3.51;77.87
60611;BME280;46439;51.164;13.572;2023-03-04T09:01:43;100288.80;;;3.51;78.02
60611;BME280;46439;51.164;13.572;2023-03-04T09:04:11;100287.26;;;3.55;77.99
60611;BME280;46439;51.164;13.572;2023-03-04T09:06:40;100280.35;;;3.57;78.03
60611;BME280;46439;51.164;13.572;2023-03-04T09:09:08;100281.61;;;3.56;77.96
60611;BME280;46439;51.164;13.572;2023-03-04T09:11:37;100283.30;;;3.57;78.02
60611;BME280;46439;51.164;13.572;2023-03-04T09:14:06;100282.02;;;3.62;78.11
60611;BME280;46439;51.164;13.572;2023-03-04T09:16:34;100282.71;;;3.67;78.21
60611;BME280;46439;51.164;13.572;2023-03-04T09:19:03;100282.37;;;3.69;78.24
60611;BME280;46439;51.164;13.572;2023-03-04T09:21:31;100283.16;;;3.72;78.25
60611;BME280;46439;51.164;13.572;2023-03-04T09:23:59;100286.61;;;3.76;78.16
60611;BME280;46439;51.164;13.572;2023-03-04T09:26:29;100279.30;;;3.80;78.28
60611;BME280;46439;51.164;13.572;2023-03-04T09:28:59;100281.09;;;3.82;78.57
60611;BME280;46439;51.164;13.572;2023-03-04T09:31:29;100279.60;;;3.83;78.57
60611;BME280;46439;51.164;13.572;2023-03-04T09:33:58;100277.02;;;3.86;78.42
60611;BME280;46439;51.164;13.572;2023-03-04T09:36:27;100279.42;;;3.87;78.44
60611;BME280;46439;51.164;13.572;2023-03-04T09:38:55;100275.89;;;3.89;78.42
60611;BME280;46439;51.164;13.572;2023-03-04T09:41:28;100276.11;;;3.93;78.37
60611;BME280;46439;51.164;13.572;2023-03-04T09:44:01;100275.41;;;3.95;78.49
60611;BME280;46439;51.164;13.572;2023-03-04T09:46:34;100269.77;;;3.96;78.56
60611;BME280;46439;51.164;13.572;2023-03-04T09:49:05;100270.98;;;3.97;78.62
60611;BME280;46439;51.164;13.572;2023-03-04T09:51:44;100266.29;;;3.97;78.78
60611;BME280;46439;51.164;13.572;2023-03-04T09:54:20;100264.11;;;4.02;78.57
60611;BME280;46439;51.164;13.572;2023-03-04T09:56:58;100262.14;;;4.07;78.71
60611;BME280;46439;51.164;13.572;2023-03-04T09:59:31;100258.33;;;4.12;78.60
60611;BME280;46439;51.164;13.572;2023-03-04T10:02:15;100254.96;;;4.14;78.42
60611;BME280;46439;51.164;13.572;2023-03-04T10:04:49;100251.42;;;4.13;78.67
60611;BME280;46439;51.164;13.572;2023-03-04T10:07:22;100245.88;;;4.14;78.82
60611;BME280;46439;51.164;13.572;2023-03-04T10:09:54;100243.64;;;4.15;78.52
60611;BME280;46439;51.164;13.572;2023-03-04T10:12:26;100238.87;;;4.17;78.77
60611;BME280;46439;51.164;13.572;2023-03-04T10:15:00;100239.91;;;4.19;78.79
60611;BME280;46439;51.164;13.572;2023-03-04T10:17:35;100234.88;;;4.21;78.82
60611;BME280;46439;51.164;13.572;2023-03-04T10:20:10;100232.11;;;4.25;78.95
60611;BME280;46439;51.164;13.572;2023-03-04T10:22:43;100230.00;;;4.29;78.82
60611;BME280;46439;51.164;13.572;2023-03-04T10:25:20;100232.52;;;4.32;79.15
60611;BME280;46439;51.164;13.572;2023-03-04T10:27:55;100232.79;;;4.34;78.93
60611;BME280;46439;51.164;13.572;2023-03-04T10:30:43;100232.30;;;4.35;78.73
60611;BME280;46439;51.164;13.572;2023-03-04T10:33:15;100230.56;;;4.34;78.94
60611;BME280;46439;51.164;13.572;2023-03-04T10:35:48;100234.73;;;4.36;78.89
60611;BME280;46439;51.164;13.572;2023-03-04T10:38:20;100229.89;;;4.36;78.90
60611;BME280;46439;51.164;13.572;2023-03-04T10:40:49;100232.23;;;4.38;78.96
60611;BME280;46439;51.164;13.572;2023-03-04T10:43:20;100229.70;;;4.38;78.80
60611;BME280;46439;51.164;13.572;2023-03-04T10:45:51;100224.29;;;4.39;79.20
60611;BME280;46439;51.164;13.572;2023-03-04T10:48:23;100226.30;;;4.40;79.15
60611;BME280;46439;51.164;13.572;2023-03-04T10:50:52;100224.53;;;4.42;79.33
60611;BME280;46439;51.164;13.572;2023-03-04T10:53:29;100220.90;;;4.48;79.10
60611;BME280;46439;51.164;13.572;2023-03-04T10:55:58;100220.88;;;4.50;79.37
60611;BME280;46439;51.164;13.572;2023-03-04T10:58:27;100219.83;;;4.50;79.07
60611;BME280;46439;51.164;13.572;2023-03-04T11:01:03;100219.82;;;4.50;79.10
60611;BME280;46439;51.164;13.572;2023-03-04T11:03:34;100214.44;;;4.50;79.15
60611;BME280;46439;51.164;13.572;2023-03-04T11:06:14;100215.52;;;4.52;79.04
60611;BME280;46439;51.164;13.572;2023-03-04T11:08:43;100210.55;;;4.56;79.23
60611;BME280;46439;51.164;13.572;2023-03-04T11:11:24;100210.35;;;4.60;79.18
60611;BME280;46439;51.164;13.572;2023-03-04T11:14:01;100213.23;;;4.68;79.35
60611;BME280;46439;51.164;13.572;2023-03-04T11:16:32;100208.25;;;4.74;79.38
60611;BME280;46439;51.164;13.572;2023-03-04T11:19:05;100207.41;;;4.79;79.59
60611;BME280;46439;51.164;13.572;2023-03-04T11:21:39;100205.70;;;4.85;79.52
60611;BME280;46439;51.164;13.572;2023-03-04T11:24:13;100201.14;;;4.88;79.50
60611;BME280;46439;51.164;13.572;2023-03-04T11:26:44;100202.20;;;4.92;79.59
60611;BME280;46439;51.164;13.572;2023-03-04T11:29:17;100200.48;;;4.95;79.59
60611;BME280;46439;51.164;13.572;2023-03-04T11:31:51;100198.60;;;4.96;79.55
60611;BME280;46439;51.164;13.572;2023-03-04T11:34:31;100194.32;;;4.96;79.62
60611;BME280;46439;51.164;13.572;2023-03-04T11:37:05;100196.02;;;4.97;79.71
60611;BME280;46439;51.164;13.572;2023-03-04T11:39:37;100198.34;;;4.95;79.60
60611;BME280;46439;51.164;13.572;2023-03-04T11:42:15;100194.96;;;4.93;79.56
60611;BME280;46439;51.164;13.572;2023-03-04T11:44:47;100190.62;;;4.94;79.52
60611;BME280;46439;51.164;13.572;2023-03-04T11:47:39;100194.77;;;4.95;79.51
60611;BME280;46439;51.164;13.572;2023-03-04T11:50:28;100192.56;;;5.00;79.64
60611;BME280;46439;51.164;13.572;2023-03-04T11:53:16;100188.40;;;5.01;79.64
60611;BME280;46439;51.164;13.572;2023-03-04T11:55:52;100183.70;;;5.04;79.87
60611;BME280;46439;51.164;13.572;2023-03-04T11:58:39;100185.20;;;5.09;79.78
60611;BME280;46439;51.164;13.572;2023-03-04T12:01:15;100179.94;;;5.12;80.04
60611;BME280;46439;51.164;13.572;2023-03-04T12:04:06;100170.20;;;5.15;79.81
60611;BME280;46439;51.164;13.572;2023-03-04T12:06:48;100168.05;;;5.19;79.89
60611;BME280;46439;51.164;13.572;2023-03-04T12:09:32;100170.78;;;5.26;80.11
60611;BME280;46439;51.164;13.572;2023-03-04T12:12:22;100163.35;;;5.33;80.16
60611;BME280;46439;51.164;13.572;2023-03-04T12:15:03;100161.98;;;5.35;80.03
60611;BME280;46439;51.164;13.572;2023-03-04T12:17:57;100160.60;;;5.36;79.92
60611;BME280;46439;51.164;13.572;2023-03-04T12:20:41;100150.06;;;5.37;80.00
60611;BME280;46439;51.164;13.572;2023-03-04T12:23:24;100147.14;;;5.39;80.02
60611;BME280;46439;51.164;13.572;2023-03-04T12:25:59;100140.86;;;5.43;80.09
60611;BME280;46439;51.164;13.572;2023-03-04T12:28:41;100138.27;;;5.46;80.31
60611;BME280;46439;51.164;13.572;2023-03-04T12:31:26;100137.48;;;5.47;80.16
60611;BME280;46439;51.164;13.572;2023-03-04T12:34:06;100135.90;;;5.51;80.28
60611;BME280;46439;51.164;13.572;2023-03-04T12:36:46;100133.51;;;5.55;80.39
60611;BME280;46439;51.164;13.572;2023-03-04T12:39:24;100131.77;;;5.59;80.25
60611;BME280;46439;51.164;13.572;2023-03-04T12:41:59;100124.86;;;5.64;80.41
60611;BME280;46439;51.164;13.572;2023-03-04T12:44:35;100127.56;;;5.66;80.30
60611;BME280;46439;51.164;13.572;2023-03-04T12:47:25;100129.35;;;5.68;80.30
60611;BME280;46439;51.164;13.572;2023-03-04T12:50:12;100127.77;;;5.71;80.63
60611;BME280;46439;51.164;13.572;2023-03-04T12:52:53;100121.77;;;5.74;80.35
60611;BME280;46439;51.164;13.572;2023-03-04T12:55:32;100119.58;;;5.76;80.43
60611;BME280;46439;51.164;13.572;2023-03-04T12:58:03;100115.90;;;5.80;80.55
60611;BME280;46439;51.164;13.572;2023-03-04T13:00:39;100112.40;;;5.83;80.54
60611;BME280;46439;51.164;13.572;2023-03-04T13:03:16;100112.58;;;5.85;80.54
60611;BME280;46439;51.164;13.572;2023-03-04T13:05:59;100110.14;;;5.86;80.55
60611;BME280;46439;51.164;13.572;2023-03-04T13:08:39;100105.96;;;5.88;80.50
60611;BME280;46439;51.164;13.572;2023-03-04T13:11:38;100107.23;;;5.92;80.59
60611;BME280;46439;51.164;13.572;2023-03-04T13:14:21;100104.34;;;5.94;80.68
60611;BME280;46439;51.164;13.572;2023-03-04T13:16:51;100104.70;;;5.94;80.44
60611;BME280;46439;51.164;13.572;2023-03-04T13:19:51;100101.41;;;5.93;80.42
60611;BME280;46439;51.164;13.572;2023-03-04T13:22:43;100098.92;;;5.93;80.44